Dale, Iowa
Current Conditions -  °F | °C
As of 4:55 AM on Thursday 27 Nov 2014 (Local Time) from KPRO Reporting Station
Clear Clear  
Wind Chill: -9°   Ceiling: Unl
Heat Index:   Visibility: 10mi
Dew Point:   Wind: 12mph
Humidity: 77%   Direction: 330°NNW
Pressure: 30.49"   Gusts: NA
Location:  41.5397°N, 94.299°W
Report Text: KPRO 271055Z AUTO 33010KT 10SM CLR M14/M18 A3049 RMK AO2 T11441176
Loading
Personal Weather Stations






























Interactive Weather Map New forecast layout! Learn more

10-Day Weather Forecast

Advertisements
Track Severe Weather on mobile